Time;durP1;ratioP1;P1;durP2;ratioP2;P2;SDS_P1;SDS_P2;PMS_P1;PMS_P2;Temp;Humidity;BMP_temperature;BMP_pressure;BME280_temperature;BME280_humidity;BME280_pressure;Samples;Min_cycle;Max_cycle;Signal;HPM_P1;HPM_P2
2021/06/20 00:00:50;;;;;;;;;;;25.40;67.60;;;;;;5087173;28;19947;-42
2021/06/20 00:03:16;;;;;;;;;;;25.40;68.20;;;;;;5105936;28;19904;-42
2021/06/20 00:05:47;;;;;;;;;;;25.40;67.50;;;;;;5105944;28;19956;-43
2021/06/20 00:08:13;;;;;;;;;;;25.40;67.40;;;;;;5105622;28;19915;-42
2021/06/20 00:10:39;;;;;;;;;;;25.40;67.40;;;;;;5104318;28;19908;-42
2021/06/20 00:13:04;;;;;;;;;;;25.40;67.40;;;;;;5105641;28;20657;-42
2021/06/20 00:15:31;;;;;;;;;;;25.40;67.40;;;;;;5105402;28;19908;-42
2021/06/20 00:17:57;;;;;;;;;;;25.40;67.40;;;;;;5105535;28;19908;-42
2021/06/20 00:20:23;;;;;;;;;;;25.30;67.40;;;;;;5105238;28;19940;-42
2021/06/20 00:22:49;;;;;;;;;;;25.30;67.60;;;;;;5105546;28;19912;-42
2021/06/20 00:25:15;;;;;;;;;;;25.30;67.60;;;;;;5104815;28;19957;-42
2021/06/20 00:27:41;;;;;;;;;;;25.30;67.60;;;;;;5105381;28;19908;-42
2021/06/20 00:30:08;;;;;;;;;;;25.30;67.50;;;;;;5105166;28;19930;-43
2021/06/20 00:32:34;;;;;;;;;;;25.30;67.60;;;;;;5105451;28;19908;-43
2021/06/20 00:35:00;;;;;;;;;;;25.30;67.80;;;;;;5105142;28;19912;-42
2021/06/20 00:37:26;;;;;;;;;;;25.30;67.70;;;;;;5105479;28;19939;-42
2021/06/20 00:39:52;;;;;;;;;;;25.30;67.70;;;;;;5104548;28;19970;-42
2021/06/20 00:42:18;;;;;;;;;;;25.30;67.60;;;;;;5105258;28;20392;-42
2021/06/20 00:44:45;;;;;;;;;;;25.30;67.70;;;;;;5105251;28;19908;-42
2021/06/20 00:47:10;;;;;;;;;;;25.20;67.60;;;;;;5105024;28;19932;-42
2021/06/20 00:49:36;;;;;;;;;;;25.20;67.60;;;;;;5104874;28;19911;-42
2021/06/20 00:52:02;;;;;;;;;;;25.20;67.50;;;;;;5111400;28;19932;-42
2021/06/20 00:54:28;;;;;;;;;;;25.20;67.60;;;;;;5104561;28;19908;-42
2021/06/20 00:56:54;;;;;;;;;;;25.20;67.60;;;;;;5086560;28;19919;-42
2021/06/20 00:59:20;;;;;;;;;;;25.20;67.60;;;;;;5104427;28;19920;-42
2021/06/20 01:01:46;;;;;;;;;;;25.20;67.60;;;;;;5104785;28;19904;-42
2021/06/20 01:04:12;;;;;;;;;;;25.20;67.80;;;;;;5104355;28;19935;-42
2021/06/20 01:06:38;;;;;;;;;;;25.20;67.70;;;;;;5104698;28;19946;-42
2021/06/20 01:09:04;;;;;;;;;;;25.20;67.90;;;;;;5104546;28;19908;-42
2021/06/20 01:11:29;;;;;;;;;;;25.20;67.90;;;;;;5103981;28;19912;-42
2021/06/20 01:13:55;;;;;;;;;;;25.20;67.90;;;;;;5103370;28;19928;-42
2021/06/20 01:16:21;;;;;;;;;;;25.20;68.00;;;;;;5120289;28;19912;-42
2021/06/20 01:18:47;;;;;;;;;;;25.10;68.00;;;;;;5124613;28;19930;-42
2021/06/20 01:21:13;;;;;;;;;;;25.20;68.10;;;;;;5124761;28;19907;-43
2021/06/20 01:23:39;;;;;;;;;;;25.10;68.00;;;;;;5124473;28;19915;-42
2021/06/20 01:26:05;;;;;;;;;;;25.10;68.00;;;;;;5124485;28;20382;-42
2021/06/20 01:28:40;;;;;;;;;;;25.10;68.00;;;;;;5124429;28;19953;-42
2021/06/20 01:31:10;;;;;;;;;;;25.10;67.90;;;;;;5124119;28;19904;-42
2021/06/20 01:33:36;;;;;;;;;;;25.10;67.90;;;;;;5124252;28;20326;-42
2021/06/20 01:36:02;;;;;;;;;;;25.10;67.90;;;;;;5124647;28;19937;-42
2021/06/20 01:38:28;;;;;;;;;;;25.10;67.90;;;;;;5124372;28;19919;-42
2021/06/20 01:40:55;;;;;;;;;;;25.10;67.90;;;;;;5124112;28;19908;-43
2021/06/20 01:43:20;;;;;;;;;;;25.10;68.00;;;;;;5105789;28;19915;-42
2021/06/20 01:45:46;;;;;;;;;;;25.10;67.90;;;;;;5124246;28;19907;-42
2021/06/20 01:48:12;;;;;;;;;;;25.10;67.90;;;;;;5126592;27;19925;-42
2021/06/20 01:50:38;;;;;;;;;;;25.10;67.80;;;;;;5124318;28;19950;-42
2021/06/20 01:53:04;;;;;;;;;;;25.10;67.90;;;;;;5124014;28;19907;-42
2021/06/20 01:55:30;;;;;;;;;;;25.10;68.00;;;;;;5123894;28;19920;-43
2021/06/20 01:57:56;;;;;;;;;;;25.10;67.90;;;;;;5124116;28;20459;-42
2021/06/20 02:00:21;;;;;;;;;;;25.10;68.00;;;;;;5123293;28;19919;-42
2021/06/20 02:02:47;;;;;;;;;;;25.00;67.90;;;;;;5124013;28;19951;-42
2021/06/20 02:05:13;;;;;;;;;;;25.00;68.00;;;;;;5123872;28;19908;-42
2021/06/20 02:07:39;;;;;;;;;;;25.00;68.00;;;;;;5123945;28;19907;-42
2021/06/20 02:10:06;;;;;;;;;;;25.00;67.90;;;;;;5123856;28;19998;-43
2021/06/20 02:12:32;;;;;;;;;;;25.00;67.90;;;;;;5123848;28;19915;-42
2021/06/20 02:14:58;;;;;;;;;;;25.00;68.00;;;;;;5123267;28;19911;-42
2021/06/20 02:17:28;;;;;;;;;;;25.00;68.00;;;;;;5123916;28;19919;-42
2021/06/20 02:19:55;;;;;;;;;;;25.00;68.00;;;;;;5106626;28;19908;-43
2021/06/20 02:22:21;;;;;;;;;;;25.00;68.10;;;;;;5123644;28;19925;-42
2021/06/20 02:24:47;;;;;;;;;;;25.00;68.20;;;;;;5122041;28;19935;-42
2021/06/20 02:27:13;;;;;;;;;;;25.00;68.10;;;;;;5123582;28;20418;-43
2021/06/20 02:29:40;;;;;;;;;;;25.00;68.10;;;;;;5123778;28;19914;-42
2021/06/20 02:32:06;;;;;;;;;;;25.00;68.10;;;;;;5123708;28;19908;-42
2021/06/20 02:34:32;;;;;;;;;;;25.00;68.20;;;;;;5123234;28;19908;-42
2021/06/20 02:36:58;;;;;;;;;;;25.00;68.30;;;;;;5123570;28;19918;-42
2021/06/20 02:39:24;;;;;;;;;;;25.00;68.30;;;;;;5123496;28;19908;-42
2021/06/20 02:41:50;;;;;;;;;;;25.00;68.20;;;;;;5123235;28;19977;-42
2021/06/20 02:44:16;;;;;;;;;;;25.00;68.20;;;;;;5123256;28;19908;-42
2021/06/20 02:46:43;;;;;;;;;;;25.00;68.30;;;;;;5123355;28;19916;-42
2021/06/20 02:49:09;;;;;;;;;;;25.00;68.30;;;;;;5123445;28;20018;-42
2021/06/20 02:51:34;;;;;;;;;;;25.00;68.40;;;;;;5127999;28;19919;-42
2021/06/20 02:54:00;;;;;;;;;;;25.00;68.40;;;;;;5140414;28;19904;-42
2021/06/20 02:56:26;;;;;;;;;;;24.90;68.40;;;;;;5143491;28;19915;-42
2021/06/20 02:58:53;;;;;;;;;;;24.90;68.30;;;;;;5143630;28;19907;-42
2021/06/20 03:01:19;;;;;;;;;;;24.90;68.40;;;;;;5143873;28;19927;-42
2021/06/20 03:03:45;;;;;;;;;;;24.90;68.40;;;;;;5143793;28;19903;-42
2021/06/20 03:06:11;;;;;;;;;;;24.90;68.40;;;;;;5143384;28;19969;-42
2021/06/20 03:08:37;;;;;;;;;;;24.90;68.60;;;;;;5143839;28;20387;-42
2021/06/20 03:11:03;;;;;;;;;;;24.90;68.60;;;;;;5143225;27;19907;-42
2021/06/20 03:13:29;;;;;;;;;;;24.90;68.70;;;;;;5143719;28;19957;-42
2021/06/20 03:15:55;;;;;;;;;;;24.90;68.70;;;;;;5130972;28;19915;-42
2021/06/20 03:18:21;;;;;;;;;;;24.90;68.70;;;;;;5122969;28;20002;-43
2021/06/20 03:20:47;;;;;;;;;;;24.90;68.80;;;;;;5122890;28;19907;-43
2021/06/20 03:23:13;;;;;;;;;;;24.80;68.70;;;;;;5123069;28;19927;-43
2021/06/20 03:25:39;;;;;;;;;;;24.90;68.70;;;;;;5122516;28;19914;-42
2021/06/20 03:28:05;;;;;;;;;;;24.80;68.70;;;;;;5122296;28;20296;-45
2021/06/20 03:30:31;;;;;;;;;;;24.80;68.70;;;;;;5122953;28;19914;-42
2021/06/20 03:32:57;;;;;;;;;;;24.80;68.70;;;;;;5123057;28;19990;-42
2021/06/20 03:35:23;;;;;;;;;;;24.80;68.60;;;;;;5122923;28;19922;-42
2021/06/20 03:37:49;;;;;;;;;;;24.80;68.70;;;;;;5126812;28;19960;-42
2021/06/20 03:40:15;;;;;;;;;;;24.80;68.70;;;;;;5126473;28;19967;-42
2021/06/20 03:42:41;;;;;;;;;;;24.80;68.80;;;;;;5126612;28;19908;-42
2021/06/20 03:45:08;;;;;;;;;;;24.80;68.80;;;;;;5126398;28;19903;-42
2021/06/20 03:47:34;;;;;;;;;;;24.80;68.80;;;;;;5126377;28;19919;-43
2021/06/20 03:50:01;;;;;;;;;;;24.80;68.80;;;;;;5108179;27;19908;-42
2021/06/20 03:52:27;;;;;;;;;;;24.80;68.70;;;;;;5140621;27;19957;-42
2021/06/20 03:54:53;;;;;;;;;;;24.80;68.80;;;;;;5126155;28;19908;-42
2021/06/20 03:57:19;;;;;;;;;;;24.80;68.80;;;;;;5125766;28;19908;-42
2021/06/20 03:59:45;;;;;;;;;;;24.80;68.90;;;;;;5126330;28;19920;-42
2021/06/20 04:02:11;;;;;;;;;;;24.80;68.80;;;;;;5126415;28;19908;-42
2021/06/20 04:04:39;;;;;;;;;;;24.80;68.90;;;;;;5125762;28;19929;-42
2021/06/20 04:07:06;;;;;;;;;;;24.80;69.00;;;;;;5126145;28;19907;-42
2021/06/20 04:09:32;;;;;;;;;;;24.80;69.10;;;;;;5126233;28;20030;-42
2021/06/20 04:11:58;;;;;;;;;;;24.80;69.00;;;;;;5126066;28;19999;-42
2021/06/20 04:14:23;;;;;;;;;;;24.70;69.10;;;;;;5126254;28;19915;-42
2021/06/20 04:16:49;;;;;;;;;;;24.70;69.10;;;;;;5125619;28;19919;-42
2021/06/20 04:19:15;;;;;;;;;;;24.70;69.10;;;;;;5125887;28;19947;-42
2021/06/20 04:21:41;;;;;;;;;;;24.70;69.20;;;;;;5125867;28;19915;-42
2021/06/20 04:24:07;;;;;;;;;;;24.70;69.20;;;;;;5125818;28;19956;-42
2021/06/20 04:26:33;;;;;;;;;;;24.70;69.10;;;;;;5125482;28;19907;-42
2021/06/20 04:28:59;;;;;;;;;;;24.70;69.20;;;;;;5125409;28;19914;-42
2021/06/20 04:31:25;;;;;;;;;;;24.70;69.10;;;;;;5125692;28;19904;-43
2021/06/20 04:33:51;;;;;;;;;;;24.70;69.10;;;;;;5125461;28;19903;-42
2021/06/20 04:36:17;;;;;;;;;;;24.70;69.20;;;;;;5125420;28;20005;-42
2021/06/20 04:38:43;;;;;;;;;;;24.70;69.20;;;;;;5125643;28;19907;-42
2021/06/20 04:41:13;;;;;;;;;;;24.70;69.10;;;;;;5125254;28;19954;-42
2021/06/20 04:43:56;;;;;;;;;;;24.70;69.10;;;;;;5125613;28;19908;-42
2021/06/20 04:46:29;;;;;;;;;;;24.70;69.00;;;;;;5125199;28;20022;-44
2021/06/20 04:48:55;;;;;;;;;;;24.70;69.10;;;;;;5125212;28;19914;-41
2021/06/20 04:51:21;;;;;;;;;;;24.70;69.10;;;;;;5125195;28;19904;-43
2021/06/20 04:53:47;;;;;;;;;;;24.70;69.10;;;;;;5130688;27;19942;-42
2021/06/20 04:56:13;;;;;;;;;;;24.70;69.10;;;;;;5124787;28;19921;-42
2021/06/20 04:58:40;;;;;;;;;;;24.70;69.10;;;;;;5123869;28;19987;-42
2021/06/20 05:01:06;;;;;;;;;;;24.70;69.20;;;;;;5124972;28;19922;-42
2021/06/20 05:03:31;;;;;;;;;;;24.70;69.20;;;;;;5125311;28;19904;-42
2021/06/20 05:05:57;;;;;;;;;;;24.70;69.20;;;;;;5124877;28;20561;-42
2021/06/20 05:08:23;;;;;;;;;;;24.70;69.20;;;;;;5125030;28;19915;-43
2021/06/20 05:10:51;;;;;;;;;;;24.70;69.20;;;;;;5124684;28;19907;-42
2021/06/20 05:13:17;;;;;;;;;;;24.70;69.30;;;;;;5124973;28;19907;-43
2021/06/20 05:15:42;;;;;;;;;;;24.70;69.30;;;;;;5124648;28;19969;-42
2021/06/20 05:18:08;;;;;;;;;;;24.70;69.30;;;;;;5124248;28;19975;-42
2021/06/20 05:20:34;;;;;;;;;;;24.60;69.20;;;;;;5124788;28;19907;-42
2021/06/20 05:23:00;;;;;;;;;;;24.60;69.30;;;;;;5124813;28;19904;-43
2021/06/20 05:25:26;;;;;;;;;;;24.60;69.30;;;;;;5124678;28;20299;-42
2021/06/20 05:27:52;;;;;;;;;;;24.60;69.20;;;;;;5124461;28;19903;-42
2021/06/20 05:30:18;;;;;;;;;;;24.70;69.20;;;;;;5124717;28;19915;-42
2021/06/20 05:32:44;;;;;;;;;;;24.60;69.20;;;;;;5124569;28;19972;-42
2021/06/20 05:35:10;;;;;;;;;;;24.60;69.20;;;;;;5124649;28;19916;-43
2021/06/20 05:37:36;;;;;;;;;;;24.60;69.20;;;;;;5124482;28;19925;-42
2021/06/20 05:40:02;;;;;;;;;;;24.60;69.10;;;;;;5124408;28;19976;-42
2021/06/20 05:42:28;;;;;;;;;;;24.60;69.20;;;;;;5124077;28;19907;-43
2021/06/20 05:44:54;;;;;;;;;;;24.60;69.20;;;;;;5124393;28;19915;-42
2021/06/20 05:47:20;;;;;;;;;;;24.60;69.50;;;;;;5133159;27;19963;-42
2021/06/20 05:49:46;;;;;;;;;;;24.60;69.00;;;;;;5124868;28;19911;-42
2021/06/20 05:52:12;;;;;;;;;;;24.60;69.10;;;;;;5124173;28;19926;-42
2021/06/20 05:54:38;;;;;;;;;;;24.60;69.20;;;;;;5123777;28;19907;-42
2021/06/20 05:57:03;;;;;;;;;;;24.60;69.30;;;;;;5123631;28;19979;-43
2021/06/20 05:59:29;;;;;;;;;;;24.60;69.20;;;;;;5123507;28;19915;-42
2021/06/20 06:01:55;;;;;;;;;;;24.60;69.20;;;;;;5124050;28;19908;-42
2021/06/20 06:04:23;;;;;;;;;;;24.60;69.20;;;;;;5124075;28;19903;-42
2021/06/20 06:06:49;;;;;;;;;;;24.60;69.20;;;;;;5123812;28;19908;-42
2021/06/20 06:09:15;;;;;;;;;;;24.60;69.30;;;;;;5124032;28;19926;-43
2021/06/20 06:11:41;;;;;;;;;;;24.60;69.40;;;;;;5123630;28;19908;-43
2021/06/20 06:14:07;;;;;;;;;;;24.60;69.50;;;;;;5123990;28;19978;-43
2021/06/20 06:16:33;;;;;;;;;;;24.60;69.50;;;;;;5123453;28;19916;-42
2021/06/20 06:18:59;;;;;;;;;;;24.60;69.70;;;;;;5123700;28;19907;-42
2021/06/20 06:21:25;;;;;;;;;;;24.60;69.40;;;;;;5122836;28;19963;-42
2021/06/20 06:23:50;;;;;;;;;;;24.60;69.40;;;;;;5123833;28;19994;-42
2021/06/20 06:26:16;;;;;;;;;;;24.60;69.30;;;;;;5123460;28;19904;-42
2021/06/20 06:28:42;;;;;;;;;;;24.60;69.30;;;;;;5123267;28;19903;-42
2021/06/20 06:31:08;;;;;;;;;;;24.60;69.30;;;;;;5123842;28;19998;-42
2021/06/20 06:33:34;;;;;;;;;;;24.60;69.30;;;;;;5123618;28;19960;-42
2021/06/20 06:36:00;;;;;;;;;;;24.60;70.20;;;;;;5123427;28;19915;-43
2021/06/20 06:38:26;;;;;;;;;;;24.60;69.20;;;;;;5123359;28;19907;-42
2021/06/20 06:40:52;;;;;;;;;;;24.60;69.20;;;;;;5123213;28;19957;-42
2021/06/20 06:43:18;;;;;;;;;;;24.60;69.40;;;;;;5123453;28;19908;-42
2021/06/20 06:45:43;;;;;;;;;;;24.60;69.20;;;;;;5123393;28;19907;-42
2021/06/20 06:48:10;;;;;;;;;;;24.60;69.30;;;;;;5126485;27;19908;-42
2021/06/20 06:50:36;;;;;;;;;;;24.60;69.20;;;;;;5114072;28;19927;-42
2021/06/20 06:53:02;;;;;;;;;;;24.60;69.30;;;;;;5102888;28;19904;-42
2021/06/20 06:55:28;;;;;;;;;;;24.60;69.20;;;;;;5102970;28;19916;-42
2021/06/20 06:57:54;;;;;;;;;;;24.60;69.30;;;;;;5102312;28;19908;-43
2021/06/20 07:00:20;;;;;;;;;;;24.60;69.40;;;;;;5102794;28;19924;-42
2021/06/20 07:02:46;;;;;;;;;;;24.60;69.30;;;;;;5102952;28;19912;-42
2021/06/20 07:05:12;;;;;;;;;;;24.60;69.40;;;;;;5102911;28;19947;-43
2021/06/20 07:07:38;;;;;;;;;;;24.50;69.40;;;;;;5102807;28;19963;-44
2021/06/20 07:10:04;;;;;;;;;;;24.50;69.40;;;;;;5103060;28;19931;-42
2021/06/20 07:12:31;;;;;;;;;;;24.50;69.50;;;;;;5116672;28;19964;-42
2021/06/20 07:14:57;;;;;;;;;;;24.50;69.50;;;;;;5127137;28;19903;-42
2021/06/20 07:17:23;;;;;;;;;;;24.50;69.60;;;;;;5127025;28;20079;-42
2021/06/20 07:19:49;;;;;;;;;;;24.50;69.50;;;;;;5126889;28;20279;-44
2021/06/20 07:22:15;;;;;;;;;;;24.50;69.50;;;;;;5127556;28;19908;-42
2021/06/20 07:24:40;;;;;;;;;;;24.50;69.40;;;;;;5127131;28;20352;-42
2021/06/20 07:27:07;;;;;;;;;;;24.50;69.20;;;;;;5126807;28;19903;-42
2021/06/20 07:29:33;;;;;;;;;;;24.50;69.50;;;;;;5126868;28;19963;-42
2021/06/20 07:31:58;;;;;;;;;;;24.50;69.50;;;;;;5127064;28;19914;-42
2021/06/20 07:34:24;;;;;;;;;;;24.50;69.30;;;;;;5126941;28;19908;-42
2021/06/20 07:36:51;;;;;;;;;;;24.50;69.30;;;;;;5127000;28;19919;-42
2021/06/20 07:39:17;;;;;;;;;;;24.50;69.40;;;;;;5126586;28;19908;-42
2021/06/20 07:41:43;;;;;;;;;;;24.50;69.40;;;;;;5126468;28;19977;-42
2021/06/20 07:44:09;;;;;;;;;;;24.50;69.40;;;;;;5126834;28;19936;-43
2021/06/20 07:46:35;;;;;;;;;;;24.50;69.40;;;;;;5126908;28;19979;-42
2021/06/20 07:49:01;;;;;;;;;;;24.50;69.30;;;;;;5126086;28;19903;-43
2021/06/20 07:51:27;;;;;;;;;;;24.50;69.40;;;;;;5128349;27;19903;-42
2021/06/20 07:53:53;;;;;;;;;;;24.50;69.50;;;;;;5126184;28;19908;-42
2021/06/20 07:56:20;;;;;;;;;;;24.50;69.40;;;;;;5126194;28;19937;-43
2021/06/20 07:58:46;;;;;;;;;;;24.50;69.50;;;;;;5126286;28;19903;-43
2021/06/20 08:01:12;;;;;;;;;;;24.50;69.50;;;;;;5126662;28;19983;-42
2021/06/20 08:03:38;;;;;;;;;;;24.50;69.40;;;;;;5126213;28;19908;-42
2021/06/20 08:06:04;;;;;;;;;;;24.50;69.50;;;;;;5126378;28;19907;-43
2021/06/20 08:08:29;;;;;;;;;;;24.50;69.60;;;;;;5126036;28;19910;-43
2021/06/20 08:10:57;;;;;;;;;;;24.50;69.60;;;;;;5126053;28;19967;-42
2021/06/20 08:13:23;;;;;;;;;;;24.50;69.50;;;;;;5126173;28;19908;-42
2021/06/20 08:15:49;;;;;;;;;;;24.40;69.50;;;;;;5126226;28;19937;-42
2021/06/20 08:18:15;;;;;;;;;;;24.50;69.50;;;;;;5125737;28;19907;-42
2021/06/20 08:20:41;;;;;;;;;;;24.50;69.50;;;;;;5126070;28;19914;-42
2021/06/20 08:23:07;;;;;;;;;;;24.40;69.50;;;;;;5125619;28;19954;-42
2021/06/20 08:25:32;;;;;;;;;;;24.50;69.60;;;;;;5125821;28;19908;-42
2021/06/20 08:27:58;;;;;;;;;;;24.50;69.50;;;;;;5125166;28;20679;-42
2021/06/20 08:30:24;;;;;;;;;;;24.40;69.40;;;;;;5125490;28;19908;-43
2021/06/20 08:32:50;;;;;;;;;;;24.50;69.40;;;;;;5125988;28;19912;-42
2021/06/20 08:35:18;;;;;;;;;;;24.50;69.50;;;;;;5125957;28;19907;-42
2021/06/20 08:37:45;;;;;;;;;;;24.50;69.50;;;;;;5125864;28;19911;-42
2021/06/20 08:40:11;;;;;;;;;;;24.50;69.40;;;;;;5125637;28;19907;-42
2021/06/20 08:42:37;;;;;;;;;;;24.50;69.50;;;;;;5125374;28;19904;-42
2021/06/20 08:45:03;;;;;;;;;;;24.50;69.60;;;;;;5125567;28;19914;-43
2021/06/20 08:47:29;;;;;;;;;;;24.50;69.50;;;;;;5131346;27;19937;-43
2021/06/20 08:49:55;;;;;;;;;;;24.50;69.50;;;;;;5125221;28;20336;-42
2021/06/20 08:52:21;;;;;;;;;;;24.50;69.60;;;;;;5125643;28;19903;-42
2021/06/20 08:55:07;;;;;;;;;;;24.50;69.60;;;;;;5125416;28;19907;-43
2021/06/20 08:57:32;;;;;;;;;;;24.50;69.60;;;;;;5124982;28;19920;-42
2021/06/20 08:59:58;;;;;;;;;;;24.40;69.70;;;;;;5125234;28;19941;-42
2021/06/20 09:02:27;;;;;;;;;;;24.50;69.40;;;;;;5125268;28;19908;-42
2021/06/20 09:04:54;;;;;;;;;;;24.40;69.60;;;;;;5125328;28;20026;-42
2021/06/20 09:07:27;;;;;;;;;;;24.50;69.60;;;;;;5124579;28;20108;-42
2021/06/20 09:09:53;;;;;;;;;;;24.40;69.50;;;;;;5125029;28;19907;-42
2021/06/20 09:12:19;;;;;;;;;;;24.40;69.60;;;;;;5124877;28;19907;-43
2021/06/20 09:14:49;;;;;;;;;;;24.40;69.50;;;;;;5125074;28;20445;-42
2021/06/20 09:17:24;;;;;;;;;;;24.40;69.70;;;;;;5125196;28;20372;-42
2021/06/20 09:19:55;;;;;;;;;;;24.40;69.60;;;;;;5106816;28;19911;-42
2021/06/20 09:22:21;;;;;;;;;;;24.40;69.50;;;;;;5124952;28;19971;-42
2021/06/20 09:24:56;;;;;;;;;;;24.40;69.60;;;;;;5124868;28;19907;-42
2021/06/20 09:27:22;;;;;;;;;;;24.40;69.70;;;;;;5124623;28;19910;-43
2021/06/20 09:29:48;;;;;;;;;;;24.40;69.60;;;;;;5124683;28;19971;-42
2021/06/20 09:32:14;;;;;;;;;;;24.40;69.70;;;;;;5124759;28;19907;-43
2021/06/20 09:34:43;;;;;;;;;;;24.40;69.70;;;;;;5123880;28;19977;-42
2021/06/20 09:37:09;;;;;;;;;;;24.40;69.60;;;;;;5124664;28;19919;-42
2021/06/20 09:39:35;;;;;;;;;;;24.40;69.70;;;;;;5124424;28;19954;-42
2021/06/20 09:42:02;;;;;;;;;;;24.40;69.70;;;;;;5124244;28;19908;-42
2021/06/20 09:44:34;;;;;;;;;;;24.40;69.60;;;;;;5105981;28;19967;-42
2021/06/20 09:47:00;;;;;;;;;;;24.50;69.80;;;;;;5122434;27;19907;-42
2021/06/20 09:49:29;;;;;;;;;;;24.40;69.70;;;;;;5143489;27;19907;-42
2021/06/20 09:51:55;;;;;;;;;;;24.40;69.60;;;;;;5124280;28;20060;-42
2021/06/20 09:54:28;;;;;;;;;;;24.40;69.60;;;;;;5124332;28;19910;-42
2021/06/20 09:56:54;;;;;;;;;;;24.40;69.70;;;;;;5105445;28;19922;-42
2021/06/20 09:59:25;;;;;;;;;;;24.40;69.60;;;;;;5124180;28;19916;-42
2021/06/20 10:01:51;;;;;;;;;;;24.40;69.70;;;;;;5123928;28;19918;-42
2021/06/20 10:04:17;;;;;;;;;;;24.40;69.70;;;;;;5124122;28;19935;-42
2021/06/20 10:06:42;;;;;;;;;;;24.40;69.80;;;;;;5124134;28;19997;-42
2021/06/20 10:09:08;;;;;;;;;;;24.40;69.80;;;;;;5105563;28;19931;-42
2021/06/20 10:11:34;;;;;;;;;;;24.40;69.80;;;;;;5123440;28;19908;-43
2021/06/20 10:14:00;;;;;;;;;;;24.40;69.80;;;;;;5123909;28;19908;-42
2021/06/20 10:16:27;;;;;;;;;;;24.40;70.00;;;;;;5123873;28;19915;-42
2021/06/20 10:19:12;;;;;;;;;;;24.40;69.80;;;;;;5105556;28;19907;-43
2021/06/20 10:21:38;;;;;;;;;;;24.40;69.80;;;;;;5123318;28;19914;-42
2021/06/20 10:24:17;;;;;;;;;;;24.40;69.80;;;;;;5123921;28;19908;-43
2021/06/20 10:26:55;;;;;;;;;;;24.40;69.80;;;;;;5123570;28;19983;-43
2021/06/20 10:29:24;;;;;;;;;;;24.40;69.80;;;;;;5123685;28;19914;-42
2021/06/20 10:31:51;;;;;;;;;;;24.40;69.90;;;;;;5123413;28;19915;-42
2021/06/20 10:34:21;;;;;;;;;;;24.40;70.00;;;;;;5123808;28;19907;-42
2021/06/20 10:36:47;;;;;;;;;;;24.30;69.80;;;;;;5123639;28;20376;-43
2021/06/20 10:39:13;;;;;;;;;;;24.40;69.80;;;;;;5122879;28;19983;-42
2021/06/20 10:41:39;;;;;;;;;;;24.30;69.80;;;;;;5123236;28;19915;-42
2021/06/20 10:44:05;;;;;;;;;;;24.30;70.00;;;;;;5123315;28;19922;-42
2021/06/20 10:46:31;;;;;;;;;;;24.30;70.00;;;;;;5123288;28;19982;-42
2021/06/20 10:48:57;;;;;;;;;;;24.30;70.00;;;;;;5123174;28;19903;-43
2021/06/20 10:51:23;;;;;;;;;;;24.30;69.90;;;;;;5109930;28;19907;-42
2021/06/20 10:53:49;;;;;;;;;;;24.30;69.90;;;;;;5129401;28;19937;-42
2021/06/20 10:56:34;;;;;;;;;;;24.30;69.90;;;;;;5104845;28;19918;-42
2021/06/20 10:59:00;;;;;;;;;;;24.30;70.00;;;;;;5122963;28;19904;-42
2021/06/20 11:01:29;;;;;;;;;;;24.30;69.90;;;;;;5102683;28;20016;-42
2021/06/20 11:03:55;;;;;;;;;;;24.30;70.40;;;;;;5084567;28;19908;-42
2021/06/20 11:06:22;;;;;;;;;;;24.30;69.90;;;;;;5103061;28;19911;-43
2021/06/20 11:09:01;;;;;;;;;;;24.30;70.00;;;;;;5102988;28;19904;-42
2021/06/20 11:11:36;;;;;;;;;;;24.30;70.00;;;;;;5111973;28;19911;-42
2021/06/20 11:14:06;;;;;;;;;;;24.30;69.80;;;;;;5104840;28;19915;-42
2021/06/20 11:16:33;;;;;;;;;;;24.30;70.00;;;;;;5123366;28;19915;-42
2021/06/20 11:19:08;;;;;;;;;;;24.30;69.90;;;;;;5122696;28;19939;-42
2021/06/20 11:21:34;;;;;;;;;;;24.30;70.00;;;;;;5122835;28;19945;-42
2021/06/20 11:24:00;;;;;;;;;;;24.30;70.60;;;;;;5123120;28;19915;-43
2021/06/20 11:26:26;;;;;;;;;;;24.30;70.10;;;;;;5122982;28;19908;-42
2021/06/20 11:29:02;;;;;;;;;;;24.30;70.00;;;;;;5123074;28;19904;-42
2021/06/20 11:31:28;;;;;;;;;;;24.30;70.00;;;;;;5123052;28;19925;-42
2021/06/20 11:33:54;;;;;;;;;;;24.30;70.10;;;;;;5123227;28;19907;-42
2021/06/20 11:36:21;;;;;;;;;;;24.30;70.10;;;;;;5123060;28;19920;-42
2021/06/20 11:38:47;;;;;;;;;;;24.30;70.10;;;;;;5123241;28;19907;-42
2021/06/20 11:41:14;;;;;;;;;;;24.30;70.00;;;;;;5121634;28;19908;-42
2021/06/20 11:43:50;;;;;;;;;;;24.30;70.10;;;;;;5122776;28;19906;-42
2021/06/20 11:46:17;;;;;;;;;;;24.30;70.00;;;;;;5121980;28;19951;-42
2021/06/20 11:48:53;;;;;;;;;;;24.30;70.00;;;;;;5124966;28;19911;-42
2021/06/20 11:51:28;;;;;;;;;;;24.30;70.20;;;;;;5122666;28;20658;-42
2021/06/20 11:54:14;;;;;;;;;;;24.30;70.10;;;;;;5122918;28;19907;-42
2021/06/20 11:56:41;;;;;;;;;;;24.30;70.10;;;;;;5105434;28;19927;-42
2021/06/20 11:59:07;;;;;;;;;;;24.20;70.20;;;;;;5126506;28;19942;-42
2021/06/20 12:01:45;;;;;;;;;;;24.30;70.10;;;;;;5126339;28;19998;-42
2021/06/20 12:04:12;;;;;;;;;;;24.20;70.20;;;;;;5126374;28;19918;-42
2021/06/20 12:06:38;;;;;;;;;;;24.30;70.00;;;;;;5126563;28;19964;-42
2021/06/20 12:09:05;;;;;;;;;;;24.30;70.00;;;;;;5126357;28;20330;-43
2021/06/20 12:11:32;;;;;;;;;;;24.30;70.00;;;;;;5107398;28;19910;-42
2021/06/20 12:13:58;;;;;;;;;;;24.30;70.10;;;;;;5126478;28;19904;-42
2021/06/20 12:16:24;;;;;;;;;;;24.30;70.20;;;;;;5107515;28;19915;-42
2021/06/20 12:18:50;;;;;;;;;;;24.30;70.10;;;;;;5125545;28;20630;-42
2021/06/20 12:21:22;;;;;;;;;;;24.20;70.00;;;;;;5125955;28;19904;-42
2021/06/20 12:23:55;;;;;;;;;;;24.20;70.00;;;;;;5126019;28;20399;-43
2021/06/20 12:26:27;;;;;;;;;;;24.30;70.10;;;;;;5126140;28;19903;-42
2021/06/20 12:28:53;;;;;;;;;;;24.30;70.10;;;;;;5126090;28;19908;-42
2021/06/20 12:31:19;;;;;;;;;;;24.20;70.10;;;;;;5126044;28;19908;-43
2021/06/20 12:33:45;;;;;;;;;;;24.20;70.10;;;;;;5125726;28;19904;-47
2021/06/20 12:36:11;;;;;;;;;;;24.20;70.20;;;;;;5107502;28;19924;-42
2021/06/20 12:38:38;;;;;;;;;;;24.20;70.10;;;;;;5125890;28;20547;-43
2021/06/20 12:41:04;;;;;;;;;;;24.30;70.20;;;;;;5124766;28;19915;-42
2021/06/20 12:43:30;;;;;;;;;;;24.20;70.00;;;;;;5125447;28;19908;-42
2021/06/20 12:45:59;;;;;;;;;;;24.20;70.10;;;;;;5125606;28;19914;-42
2021/06/20 12:48:25;;;;;;;;;;;24.20;70.10;;;;;;5125537;28;19904;-42
2021/06/20 12:50:52;;;;;;;;;;;24.20;70.00;;;;;;5128069;27;19914;-42
2021/06/20 12:53:28;;;;;;;;;;;24.20;70.10;;;;;;5135116;27;19903;-43
2021/06/20 12:55:54;;;;;;;;;;;24.20;70.10;;;;;;5135444;27;19951;-43
2021/06/20 12:58:20;;;;;;;;;;;24.20;70.00;;;;;;5106947;28;19908;-42
2021/06/20 13:00:56;;;;;;;;;;;24.20;70.10;;;;;;5125459;28;20277;-42
2021/06/20 13:03:23;;;;;;;;;;;24.20;70.20;;;;;;5125569;28;19908;-42
2021/06/20 13:05:49;;;;;;;;;;;24.20;70.20;;;;;;5125361;28;20057;-43
2021/06/20 13:08:15;;;;;;;;;;;24.30;70.20;;;;;;5125385;28;19908;-42
2021/06/20 13:10:45;;;;;;;;;;;24.20;70.10;;;;;;5125196;28;19908;-42
2021/06/20 13:13:11;;;;;;;;;;;24.20;70.20;;;;;;5124760;28;19918;-42
2021/06/20 13:15:37;;;;;;;;;;;24.20;70.10;;;;;;5125008;28;20297;-42
2021/06/20 13:18:05;;;;;;;;;;;24.20;70.20;;;;;;5106413;28;19915;-42
2021/06/20 13:20:31;;;;;;;;;;;24.20;70.40;;;;;;5125143;28;20002;-42
2021/06/20 13:22:58;;;;;;;;;;;24.20;70.20;;;;;;5125223;28;19914;-43
2021/06/20 13:25:24;;;;;;;;;;;24.20;70.30;;;;;;5124846;28;19908;-42
2021/06/20 13:27:50;;;;;;;;;;;24.20;70.20;;;;;;5124724;28;20127;-42
2021/06/20 13:30:16;;;;;;;;;;;24.20;70.30;;;;;;5125053;28;19904;-42
2021/06/20 13:32:42;;;;;;;;;;;24.20;70.30;;;;;;5124917;28;19904;-42
2021/06/20 13:35:09;;;;;;;;;;;24.20;70.30;;;;;;5124586;28;19937;-42
2021/06/20 13:37:35;;;;;;;;;;;24.20;70.30;;;;;;5124788;28;19939;-42
2021/06/20 13:40:02;;;;;;;;;;;24.20;70.30;;;;;;5124821;28;19914;-43
2021/06/20 13:42:28;;;;;;;;;;;24.20;70.20;;;;;;5105638;28;20833;-44
2021/06/20 13:44:54;;;;;;;;;;;24.20;70.20;;;;;;5124467;28;19954;-42
2021/06/20 13:47:20;;;;;;;;;;;24.20;70.30;;;;;;5124564;28;19969;-42
2021/06/20 13:49:46;;;;;;;;;;;24.20;70.20;;;;;;5128828;27;19914;-42
2021/06/20 13:52:12;;;;;;;;;;;24.20;70.30;;;;;;5124460;28;19903;-43
2021/06/20 13:54:38;;;;;;;;;;;24.20;70.30;;;;;;5124242;28;19945;-43
2021/06/20 13:57:04;;;;;;;;;;;24.20;70.30;;;;;;5123358;28;19937;-42
2021/06/20 13:59:30;;;;;;;;;;;24.20;70.30;;;;;;5124259;28;19926;-42
2021/06/20 14:01:56;;;;;;;;;;;24.20;70.20;;;;;;5124400;28;19908;-42
2021/06/20 14:04:22;;;;;;;;;;;24.20;69.80;;;;;;5124364;28;19911;-42
2021/06/20 14:06:48;;;;;;;;;;;24.20;69.70;;;;;;5124031;28;20283;-42
2021/06/20 14:09:14;;;;;;;;;;;24.20;69.70;;;;;;5124266;28;19931;-42
2021/06/20 14:11:40;;;;;;;;;;;24.20;69.70;;;;;;5123997;28;19908;-42
2021/06/20 14:14:06;;;;;;;;;;;24.20;69.70;;;;;;5123996;28;19946;-42